sensor_id;sensor_type;location;lat;lon;timestamp;P1;durP1;ratioP1;P2;durP2;ratioP2
21771;SDS011;11047;47.904;8.110;2023-12-07T00:00:54;15.35;;;7.65;;
21771;SDS011;11047;47.904;8.110;2023-12-07T00:03:24;16.95;;;7.32;;
21771;SDS011;11047;47.904;8.110;2023-12-07T00:05:51;10.63;;;7.30;;
21771;SDS011;11047;47.904;8.110;2023-12-07T00:08:19;16.20;;;7.95;;
21771;SDS011;11047;47.904;8.110;2023-12-07T00:10:46;8.98;;;6.32;;
21771;SDS011;11047;47.904;8.110;2023-12-07T00:13:13;8.70;;;6.45;;
21771;SDS011;11047;47.904;8.110;2023-12-07T00:15:41;6.45;;;5.22;;
21771;SDS011;11047;47.904;8.110;2023-12-07T00:18:08;8.80;;;6.65;;
21771;SDS011;11047;47.904;8.110;2023-12-07T00:20:41;7.40;;;6.07;;
21771;SDS011;11047;47.904;8.110;2023-12-07T00:23:08;8.02;;;5.60;;
21771;SDS011;11047;47.904;8.110;2023-12-07T00:25:35;8.20;;;5.60;;
21771;SDS011;11047;47.904;8.110;2023-12-07T00:28:02;9.05;;;5.45;;
21771;SDS011;11047;47.904;8.110;2023-12-07T00:30:30;6.53;;;4.70;;
21771;SDS011;11047;47.904;8.110;2023-12-07T00:33:03;8.23;;;4.72;;
21771;SDS011;11047;47.904;8.110;2023-12-07T00:35:30;5.72;;;4.70;;
21771;SDS011;11047;47.904;8.110;2023-12-07T00:37:57;7.55;;;4.40;;
21771;SDS011;11047;47.904;8.110;2023-12-07T00:40:25;7.15;;;5.40;;
21771;SDS011;11047;47.904;8.110;2023-12-07T00:42:52;6.90;;;4.78;;
21771;SDS011;11047;47.904;8.110;2023-12-07T00:45:21;7.47;;;5.25;;
21771;SDS011;11047;47.904;8.110;2023-12-07T00:47:48;7.57;;;5.15;;
21771;SDS011;11047;47.904;8.110;2023-12-07T00:50:19;6.90;;;4.90;;
21771;SDS011;11047;47.904;8.110;2023-12-07T00:52:46;7.50;;;5.15;;
21771;SDS011;11047;47.904;8.110;2023-12-07T00:55:13;7.85;;;5.88;;
21771;SDS011;11047;47.904;8.110;2023-12-07T00:57:42;8.50;;;5.10;;
21771;SDS011;11047;47.904;8.110;2023-12-07T01:00:15;8.15;;;5.10;;
21771;SDS011;11047;47.904;8.110;2023-12-07T01:02:42;5.68;;;4.40;;
21771;SDS011;11047;47.904;8.110;2023-12-07T01:05:12;5.60;;;4.45;;
21771;SDS011;11047;47.904;8.110;2023-12-07T01:07:41;5.65;;;4.55;;
21771;SDS011;11047;47.904;8.110;2023-12-07T01:10:08;7.20;;;4.80;;
21771;SDS011;11047;47.904;8.110;2023-12-07T01:12:35;6.20;;;4.82;;
21771;SDS011;11047;47.904;8.110;2023-12-07T01:15:02;7.72;;;5.00;;
21771;SDS011;11047;47.904;8.110;2023-12-07T01:17:29;6.65;;;4.95;;
21771;SDS011;11047;47.904;8.110;2023-12-07T01:19:57;5.55;;;4.30;;
21771;SDS011;11047;47.904;8.110;2023-12-07T01:22:25;5.65;;;3.83;;
21771;SDS011;11047;47.904;8.110;2023-12-07T01:24:55;4.85;;;3.67;;
21771;SDS011;11047;47.904;8.110;2023-12-07T01:27:22;4.88;;;3.83;;
21771;SDS011;11047;47.904;8.110;2023-12-07T01:29:52;6.47;;;3.90;;
21771;SDS011;11047;47.904;8.110;2023-12-07T01:32:19;19.52;;;5.22;;
21771;SDS011;11047;47.904;8.110;2023-12-07T01:34:50;6.75;;;4.10;;
21771;SDS011;11047;47.904;8.110;2023-12-07T01:37:17;3.95;;;3.25;;
21771;SDS011;11047;47.904;8.110;2023-12-07T01:39:44;5.18;;;3.40;;
21771;SDS011;11047;47.904;8.110;2023-12-07T01:42:12;4.13;;;2.78;;
21771;SDS011;11047;47.904;8.110;2023-12-07T01:44:39;6.15;;;4.57;;
21771;SDS011;11047;47.904;8.110;2023-12-07T01:47:06;8.07;;;5.00;;
21771;SDS011;11047;47.904;8.110;2023-12-07T01:49:35;5.22;;;3.90;;
21771;SDS011;11047;47.904;8.110;2023-12-07T01:52:05;6.45;;;4.40;;
21771;SDS011;11047;47.904;8.110;2023-12-07T01:54:33;10.75;;;4.32;;
21771;SDS011;11047;47.904;8.110;2023-12-07T01:57:00;10.38;;;4.70;;
21771;SDS011;11047;47.904;8.110;2023-12-07T01:59:29;8.60;;;4.93;;
21771;SDS011;11047;47.904;8.110;2023-12-07T02:01:56;16.08;;;5.47;;
21771;SDS011;11047;47.904;8.110;2023-12-07T02:04:23;48.20;;;5.95;;
21771;SDS011;11047;47.904;8.110;2023-12-07T02:07:12;57.65;;;6.88;;
21771;SDS011;11047;47.904;8.110;2023-12-07T02:09:40;26.88;;;5.97;;
21771;SDS011;11047;47.904;8.110;2023-12-07T02:12:07;58.95;;;6.65;;
21771;SDS011;11047;47.904;8.110;2023-12-07T02:14:35;24.85;;;6.10;;
21771;SDS011;11047;47.904;8.110;2023-12-07T02:17:06;27.10;;;6.70;;
21771;SDS011;11047;47.904;8.110;2023-12-07T02:19:47;33.42;;;6.97;;
21771;SDS011;11047;47.904;8.110;2023-12-07T02:22:22;17.15;;;6.18;;
21771;SDS011;11047;47.904;8.110;2023-12-07T02:25:02;10.25;;;4.68;;
21771;SDS011;11047;47.904;8.110;2023-12-07T02:27:35;5.85;;;4.65;;
21771;SDS011;11047;47.904;8.110;2023-12-07T02:30:04;6.07;;;3.75;;
21771;SDS011;11047;47.904;8.110;2023-12-07T02:32:32;5.72;;;4.10;;
21771;SDS011;11047;47.904;8.110;2023-12-07T02:34:59;41.47;;;5.47;;
21771;SDS011;11047;47.904;8.110;2023-12-07T02:37:27;69.40;;;6.38;;
21771;SDS011;11047;47.904;8.110;2023-12-07T02:39:59;80.47;;;6.60;;
21771;SDS011;11047;47.904;8.110;2023-12-07T02:42:29;49.13;;;6.35;;
21771;SDS011;11047;47.904;8.110;2023-12-07T02:44:59;29.10;;;6.90;;
21771;SDS011;11047;47.904;8.110;2023-12-07T02:47:26;27.98;;;6.80;;
21771;SDS011;11047;47.904;8.110;2023-12-07T02:49:54;36.42;;;6.60;;
21771;SDS011;11047;47.904;8.110;2023-12-07T02:52:25;19.63;;;6.68;;
21771;SDS011;11047;47.904;8.110;2023-12-07T02:54:52;22.48;;;6.05;;
21771;SDS011;11047;47.904;8.110;2023-12-07T03:00:36;7.55;;;4.15;;
21771;SDS011;11047;47.904;8.110;2023-12-07T03:03:12;6.28;;;3.55;;
21771;SDS011;11047;47.904;8.110;2023-12-07T03:05:39;4.50;;;3.10;;
21771;SDS011;11047;47.904;8.110;2023-12-07T03:08:06;4.43;;;2.75;;
21771;SDS011;11047;47.904;8.110;2023-12-07T03:10:33;3.40;;;2.80;;
21771;SDS011;11047;47.904;8.110;2023-12-07T03:13:03;3.53;;;2.40;;
21771;SDS011;11047;47.904;8.110;2023-12-07T03:15:30;3.67;;;2.53;;
21771;SDS011;11047;47.904;8.110;2023-12-07T03:18:00;3.97;;;2.55;;
21771;SDS011;11047;47.904;8.110;2023-12-07T03:20:27;3.33;;;2.63;;
21771;SDS011;11047;47.904;8.110;2023-12-07T03:22:54;3.40;;;2.42;;
21771;SDS011;11047;47.904;8.110;2023-12-07T03:25:21;3.53;;;2.60;;
21771;SDS011;11047;47.904;8.110;2023-12-07T03:27:51;4.22;;;2.42;;
21771;SDS011;11047;47.904;8.110;2023-12-07T03:30:18;3.70;;;2.35;;
21771;SDS011;11047;47.904;8.110;2023-12-07T03:32:46;62.33;;;5.28;;
21771;SDS011;11047;47.904;8.110;2023-12-07T03:35:14;4.43;;;2.42;;
21771;SDS011;11047;47.904;8.110;2023-12-07T03:37:42;4.78;;;2.95;;
21771;SDS011;11047;47.904;8.110;2023-12-07T03:40:11;6.22;;;4.20;;
21771;SDS011;11047;47.904;8.110;2023-12-07T03:42:38;5.38;;;3.58;;
21771;SDS011;11047;47.904;8.110;2023-12-07T03:45:06;46.55;;;5.53;;
21771;SDS011;11047;47.904;8.110;2023-12-07T03:47:33;9.00;;;4.50;;
21771;SDS011;11047;47.904;8.110;2023-12-07T03:50:00;4.82;;;3.65;;
21771;SDS011;11047;47.904;8.110;2023-12-07T03:52:29;5.25;;;2.63;;
21771;SDS011;11047;47.904;8.110;2023-12-07T03:54:56;3.35;;;2.58;;
21771;SDS011;11047;47.904;8.110;2023-12-07T03:57:23;3.38;;;2.63;;
21771;SDS011;11047;47.904;8.110;2023-12-07T03:59:50;2.88;;;2.28;;
21771;SDS011;11047;47.904;8.110;2023-12-07T04:02:20;3.03;;;2.38;;
21771;SDS011;11047;47.904;8.110;2023-12-07T04:04:47;4.47;;;2.58;;
21771;SDS011;11047;47.904;8.110;2023-12-07T04:07:15;3.33;;;2.50;;
21771;SDS011;11047;47.904;8.110;2023-12-07T04:09:43;3.03;;;2.33;;
21771;SDS011;11047;47.904;8.110;2023-12-07T04:12:10;3.25;;;2.15;;
21771;SDS011;11047;47.904;8.110;2023-12-07T04:14:37;6.15;;;2.22;;
21771;SDS011;11047;47.904;8.110;2023-12-07T04:17:04;2.60;;;2.05;;
21771;SDS011;11047;47.904;8.110;2023-12-07T04:19:31;2.42;;;2.22;;
21771;SDS011;11047;47.904;8.110;2023-12-07T04:21:58;2.97;;;2.30;;
21771;SDS011;11047;47.904;8.110;2023-12-07T04:24:25;3.03;;;2.30;;
21771;SDS011;11047;47.904;8.110;2023-12-07T04:26:54;3.63;;;2.60;;
21771;SDS011;11047;47.904;8.110;2023-12-07T04:29:21;3.90;;;2.75;;
21771;SDS011;11047;47.904;8.110;2023-12-07T04:31:48;3.00;;;2.38;;
21771;SDS011;11047;47.904;8.110;2023-12-07T04:34:15;3.58;;;2.13;;
21771;SDS011;11047;47.904;8.110;2023-12-07T04:36:42;2.53;;;2.22;;
21771;SDS011;11047;47.904;8.110;2023-12-07T04:39:09;3.55;;;2.33;;
21771;SDS011;11047;47.904;8.110;2023-12-07T04:41:36;2.97;;;2.10;;
21771;SDS011;11047;47.904;8.110;2023-12-07T04:44:05;2.88;;;2.33;;
21771;SDS011;11047;47.904;8.110;2023-12-07T04:46:32;3.15;;;2.20;;
21771;SDS011;11047;47.904;8.110;2023-12-07T04:49:00;2.90;;;2.25;;
21771;SDS011;11047;47.904;8.110;2023-12-07T04:51:28;4.80;;;2.30;;
21771;SDS011;11047;47.904;8.110;2023-12-07T04:53:56;3.03;;;2.47;;
21771;SDS011;11047;47.904;8.110;2023-12-07T04:56:23;4.18;;;2.00;;
21771;SDS011;11047;47.904;8.110;2023-12-07T04:58:50;2.60;;;2.40;;
21771;SDS011;11047;47.904;8.110;2023-12-07T05:01:18;2.67;;;2.20;;
21771;SDS011;11047;47.904;8.110;2023-12-07T05:03:45;2.42;;;1.92;;
21771;SDS011;11047;47.904;8.110;2023-12-07T05:06:12;3.47;;;2.53;;
21771;SDS011;11047;47.904;8.110;2023-12-07T05:08:39;4.25;;;2.25;;
21771;SDS011;11047;47.904;8.110;2023-12-07T05:11:08;2.47;;;2.28;;
21771;SDS011;11047;47.904;8.110;2023-12-07T05:13:35;4.38;;;2.40;;
21771;SDS011;11047;47.904;8.110;2023-12-07T05:16:02;3.17;;;2.60;;
21771;SDS011;11047;47.904;8.110;2023-12-07T05:18:31;2.97;;;2.28;;
21771;SDS011;11047;47.904;8.110;2023-12-07T05:20:58;2.20;;;2.00;;
21771;SDS011;11047;47.904;8.110;2023-12-07T05:23:25;4.18;;;2.28;;
21771;SDS011;11047;47.904;8.110;2023-12-07T05:25:55;3.03;;;2.53;;
21771;SDS011;11047;47.904;8.110;2023-12-07T05:28:22;3.40;;;2.60;;
21771;SDS011;11047;47.904;8.110;2023-12-07T05:30:49;3.00;;;2.30;;
21771;SDS011;11047;47.904;8.110;2023-12-07T05:33:16;3.75;;;2.33;;
21771;SDS011;11047;47.904;8.110;2023-12-07T05:35:45;3.08;;;2.35;;
21771;SDS011;11047;47.904;8.110;2023-12-07T05:38:13;6.90;;;4.03;;
21771;SDS011;11047;47.904;8.110;2023-12-07T05:40:40;6.78;;;3.05;;
21771;SDS011;11047;47.904;8.110;2023-12-07T05:43:07;3.90;;;2.72;;
21771;SDS011;11047;47.904;8.110;2023-12-07T05:45:34;2.88;;;2.30;;
21771;SDS011;11047;47.904;8.110;2023-12-07T05:48:01;3.38;;;1.80;;
21771;SDS011;11047;47.904;8.110;2023-12-07T05:50:28;2.03;;;1.75;;
21771;SDS011;11047;47.904;8.110;2023-12-07T05:52:56;3.63;;;2.13;;
21771;SDS011;11047;47.904;8.110;2023-12-07T05:55:24;2.22;;;2.03;;
21771;SDS011;11047;47.904;8.110;2023-12-07T05:57:51;3.65;;;2.13;;
21771;SDS011;11047;47.904;8.110;2023-12-07T06:00:21;3.63;;;2.08;;
21771;SDS011;11047;47.904;8.110;2023-12-07T06:02:48;2.47;;;2.10;;
21771;SDS011;11047;47.904;8.110;2023-12-07T06:05:15;2.67;;;1.90;;
21771;SDS011;11047;47.904;8.110;2023-12-07T06:07:42;3.80;;;2.72;;
21771;SDS011;11047;47.904;8.110;2023-12-07T06:10:11;4.13;;;2.67;;
21771;SDS011;11047;47.904;8.110;2023-12-07T06:12:37;4.60;;;2.40;;
21771;SDS011;11047;47.904;8.110;2023-12-07T06:15:05;3.45;;;2.50;;
21771;SDS011;11047;47.904;8.110;2023-12-07T06:17:33;6.57;;;3.75;;
21771;SDS011;11047;47.904;8.110;2023-12-07T06:20:00;5.72;;;2.80;;
21771;SDS011;11047;47.904;8.110;2023-12-07T06:22:28;5.78;;;2.88;;
21771;SDS011;11047;47.904;8.110;2023-12-07T06:24:55;5.72;;;3.03;;
21771;SDS011;11047;47.904;8.110;2023-12-07T06:27:24;6.88;;;3.40;;
21771;SDS011;11047;47.904;8.110;2023-12-07T06:29:51;4.60;;;3.30;;
21771;SDS011;11047;47.904;8.110;2023-12-07T06:32:18;4.22;;;2.80;;
21771;SDS011;11047;47.904;8.110;2023-12-07T06:34:45;4.93;;;2.80;;
21771;SDS011;11047;47.904;8.110;2023-12-07T06:37:12;9.82;;;2.88;;
21771;SDS011;11047;47.904;8.110;2023-12-07T06:39:39;5.68;;;3.47;;
21771;SDS011;11047;47.904;8.110;2023-12-07T06:42:06;10.82;;;6.38;;
21771;SDS011;11047;47.904;8.110;2023-12-07T06:44:34;8.85;;;5.60;;
21771;SDS011;11047;47.904;8.110;2023-12-07T06:47:01;9.32;;;6.30;;
21771;SDS011;11047;47.904;8.110;2023-12-07T06:49:29;6.68;;;4.82;;
21771;SDS011;11047;47.904;8.110;2023-12-07T06:51:56;7.55;;;4.80;;
21771;SDS011;11047;47.904;8.110;2023-12-07T06:54:23;6.25;;;3.60;;
21771;SDS011;11047;47.904;8.110;2023-12-07T06:56:50;5.63;;;2.55;;
21771;SDS011;11047;47.904;8.110;2023-12-07T06:59:17;4.57;;;3.00;;
21771;SDS011;11047;47.904;8.110;2023-12-07T07:01:46;4.47;;;3.40;;
21771;SDS011;11047;47.904;8.110;2023-12-07T07:04:14;4.90;;;3.40;;
21771;SDS011;11047;47.904;8.110;2023-12-07T07:06:41;6.85;;;3.47;;
21771;SDS011;11047;47.904;8.110;2023-12-07T07:09:10;6.55;;;3.88;;
21771;SDS011;11047;47.904;8.110;2023-12-07T07:11:37;6.78;;;4.35;;
21771;SDS011;11047;47.904;8.110;2023-12-07T07:14:04;9.55;;;4.95;;
21771;SDS011;11047;47.904;8.110;2023-12-07T07:16:32;4.18;;;3.03;;
21771;SDS011;11047;47.904;8.110;2023-12-07T07:19:00;3.60;;;3.13;;
21771;SDS011;11047;47.904;8.110;2023-12-07T07:21:28;4.65;;;3.03;;
21771;SDS011;11047;47.904;8.110;2023-12-07T07:23:55;6.00;;;3.83;;
21771;SDS011;11047;47.904;8.110;2023-12-07T07:26:22;4.75;;;3.33;;
21771;SDS011;11047;47.904;8.110;2023-12-07T07:28:50;12.18;;;4.57;;
21771;SDS011;11047;47.904;8.110;2023-12-07T07:31:17;7.68;;;5.05;;
21771;SDS011;11047;47.904;8.110;2023-12-07T07:33:44;6.05;;;3.38;;
21771;SDS011;11047;47.904;8.110;2023-12-07T07:36:14;3.92;;;2.83;;
21771;SDS011;11047;47.904;8.110;2023-12-07T07:38:41;5.57;;;3.17;;
21771;SDS011;11047;47.904;8.110;2023-12-07T07:41:09;3.65;;;2.85;;
21771;SDS011;11047;47.904;8.110;2023-12-07T07:43:36;6.95;;;3.03;;
21771;SDS011;11047;47.904;8.110;2023-12-07T07:46:03;4.57;;;2.85;;
21771;SDS011;11047;47.904;8.110;2023-12-07T07:48:30;4.70;;;3.33;;
21771;SDS011;11047;47.904;8.110;2023-12-07T07:50:57;5.47;;;3.35;;
21771;SDS011;11047;47.904;8.110;2023-12-07T07:53:29;4.82;;;3.47;;
21771;SDS011;11047;47.904;8.110;2023-12-07T07:55:56;6.60;;;3.90;;
21771;SDS011;11047;47.904;8.110;2023-12-07T07:58:25;6.60;;;3.55;;
21771;SDS011;11047;47.904;8.110;2023-12-07T08:00:52;5.25;;;3.60;;
21771;SDS011;11047;47.904;8.110;2023-12-07T08:03:21;3.80;;;2.97;;
21771;SDS011;11047;47.904;8.110;2023-12-07T08:05:48;5.30;;;3.78;;
21771;SDS011;11047;47.904;8.110;2023-12-07T08:08:15;4.65;;;3.58;;
21771;SDS011;11047;47.904;8.110;2023-12-07T08:10:53;4.43;;;3.53;;
21771;SDS011;11047;47.904;8.110;2023-12-07T08:13:20;6.43;;;4.13;;
21771;SDS011;11047;47.904;8.110;2023-12-07T08:15:47;6.57;;;4.80;;
21771;SDS011;11047;47.904;8.110;2023-12-07T08:18:16;7.80;;;4.43;;
21771;SDS011;11047;47.904;8.110;2023-12-07T08:20:43;5.68;;;4.00;;
21771;SDS011;11047;47.904;8.110;2023-12-07T08:23:27;5.50;;;4.17;;
21771;SDS011;11047;47.904;8.110;2023-12-07T08:25:56;11.68;;;4.60;;
21771;SDS011;11047;47.904;8.110;2023-12-07T08:28:25;6.88;;;4.70;;
21771;SDS011;11047;47.904;8.110;2023-12-07T08:30:52;8.07;;;4.95;;
21771;SDS011;11047;47.904;8.110;2023-12-07T08:33:19;7.10;;;5.00;;
21771;SDS011;11047;47.904;8.110;2023-12-07T08:35:46;8.63;;;4.80;;
21771;SDS011;11047;47.904;8.110;2023-12-07T08:38:20;5.50;;;4.05;;
21771;SDS011;11047;47.904;8.110;2023-12-07T08:40:48;7.40;;;4.90;;
21771;SDS011;11047;47.904;8.110;2023-12-07T08:43:33;6.35;;;4.95;;
21771;SDS011;11047;47.904;8.110;2023-12-07T08:46:00;5.60;;;4.43;;
21771;SDS011;11047;47.904;8.110;2023-12-07T08:48:28;6.65;;;4.18;;
21771;SDS011;11047;47.904;8.110;2023-12-07T08:50:55;6.63;;;4.45;;
21771;SDS011;11047;47.904;8.110;2023-12-07T08:53:22;4.93;;;4.10;;
21771;SDS011;11047;47.904;8.110;2023-12-07T08:55:49;8.43;;;4.15;;
21771;SDS011;11047;47.904;8.110;2023-12-07T08:58:18;5.30;;;3.88;;
21771;SDS011;11047;47.904;8.110;2023-12-07T09:00:46;8.15;;;5.03;;
21771;SDS011;11047;47.904;8.110;2023-12-07T09:03:13;5.50;;;3.63;;
21771;SDS011;11047;47.904;8.110;2023-12-07T09:05:40;6.03;;;4.70;;
21771;SDS011;11047;47.904;8.110;2023-12-07T09:08:07;6.30;;;4.18;;
21771;SDS011;11047;47.904;8.110;2023-12-07T09:10:35;5.10;;;4.07;;
21771;SDS011;11047;47.904;8.110;2023-12-07T09:13:02;6.93;;;3.83;;
21771;SDS011;11047;47.904;8.110;2023-12-07T09:15:30;4.63;;;3.47;;
21771;SDS011;11047;47.904;8.110;2023-12-07T09:17:58;6.28;;;4.15;;
21771;SDS011;11047;47.904;8.110;2023-12-07T09:20:25;6.38;;;4.28;;
21771;SDS011;11047;47.904;8.110;2023-12-07T09:22:52;5.40;;;4.32;;
21771;SDS011;11047;47.904;8.110;2023-12-07T09:25:20;6.50;;;3.80;;
21771;SDS011;11047;47.904;8.110;2023-12-07T09:27:47;5.65;;;4.03;;
21771;SDS011;11047;47.904;8.110;2023-12-07T09:30:16;5.65;;;4.43;;
21771;SDS011;11047;47.904;8.110;2023-12-07T09:32:44;6.25;;;4.07;;
21771;SDS011;11047;47.904;8.110;2023-12-07T09:35:11;5.80;;;4.20;;
21771;SDS011;11047;47.904;8.110;2023-12-07T09:37:40;5.60;;;4.05;;
21771;SDS011;11047;47.904;8.110;2023-12-07T09:40:07;6.82;;;4.53;;
21771;SDS011;11047;47.904;8.110;2023-12-07T09:42:40;5.55;;;4.15;;
21771;SDS011;11047;47.904;8.110;2023-12-07T09:45:08;6.50;;;4.47;;
21771;SDS011;11047;47.904;8.110;2023-12-07T09:47:36;6.28;;;4.45;;
21771;SDS011;11047;47.904;8.110;2023-12-07T09:50:06;6.03;;;4.00;;
21771;SDS011;11047;47.904;8.110;2023-12-07T09:52:34;6.03;;;4.55;;
21771;SDS011;11047;47.904;8.110;2023-12-07T09:55:01;6.05;;;4.18;;
21771;SDS011;11047;47.904;8.110;2023-12-07T09:57:28;5.95;;;4.18;;
21771;SDS011;11047;47.904;8.110;2023-12-07T09:59:55;6.82;;;4.90;;
21771;SDS011;11047;47.904;8.110;2023-12-07T10:02:23;6.63;;;4.28;;
21771;SDS011;11047;47.904;8.110;2023-12-07T10:05:02;4.85;;;4.03;;
21771;SDS011;11047;47.904;8.110;2023-12-07T10:07:33;9.27;;;3.75;;
21771;SDS011;11047;47.904;8.110;2023-12-07T10:10:02;5.75;;;4.13;;
21771;SDS011;11047;47.904;8.110;2023-12-07T10:12:30;5.32;;;3.88;;
21771;SDS011;11047;47.904;8.110;2023-12-07T10:14:59;5.80;;;3.70;;
21771;SDS011;11047;47.904;8.110;2023-12-07T10:17:42;5.22;;;4.15;;
21771;SDS011;11047;47.904;8.110;2023-12-07T10:20:15;5.13;;;4.00;;
21771;SDS011;11047;47.904;8.110;2023-12-07T10:22:47;5.00;;;4.22;;
21771;SDS011;11047;47.904;8.110;2023-12-07T10:25:20;6.78;;;4.45;;
21771;SDS011;11047;47.904;8.110;2023-12-07T10:27:48;5.63;;;4.55;;
21771;SDS011;11047;47.904;8.110;2023-12-07T10:30:15;4.97;;;3.85;;
21771;SDS011;11047;47.904;8.110;2023-12-07T10:32:50;4.65;;;3.90;;
21771;SDS011;11047;47.904;8.110;2023-12-07T10:35:17;5.30;;;3.80;;
21771;SDS011;11047;47.904;8.110;2023-12-07T10:37:49;4.68;;;3.67;;
21771;SDS011;11047;47.904;8.110;2023-12-07T10:40:16;5.25;;;4.47;;
21771;SDS011;11047;47.904;8.110;2023-12-07T10:42:47;6.22;;;4.05;;
21771;SDS011;11047;47.904;8.110;2023-12-07T10:45:15;4.00;;;3.55;;
21771;SDS011;11047;47.904;8.110;2023-12-07T10:47:45;3.75;;;3.33;;
21771;SDS011;11047;47.904;8.110;2023-12-07T10:50:16;4.97;;;3.80;;
21771;SDS011;11047;47.904;8.110;2023-12-07T10:52:51;4.45;;;3.85;;
21771;SDS011;11047;47.904;8.110;2023-12-07T10:55:20;3.92;;;3.20;;
21771;SDS011;11047;47.904;8.110;2023-12-07T10:57:49;4.53;;;3.42;;
21771;SDS011;11047;47.904;8.110;2023-12-07T11:00:19;3.22;;;2.92;;
21771;SDS011;11047;47.904;8.110;2023-12-07T11:02:49;3.40;;;3.10;;
21771;SDS011;11047;47.904;8.110;2023-12-07T11:05:18;3.40;;;2.88;;
21771;SDS011;11047;47.904;8.110;2023-12-07T11:07:52;3.17;;;2.75;;
21771;SDS011;11047;47.904;8.110;2023-12-07T11:10:25;3.40;;;2.92;;
21771;SDS011;11047;47.904;8.110;2023-12-07T11:12:59;3.08;;;2.78;;
21771;SDS011;11047;47.904;8.110;2023-12-07T11:15:36;3.42;;;2.70;;
21771;SDS011;11047;47.904;8.110;2023-12-07T11:18:04;5.38;;;3.63;;
21771;SDS011;11047;47.904;8.110;2023-12-07T11:20:39;3.60;;;2.80;;
21771;SDS011;11047;47.904;8.110;2023-12-07T11:23:10;3.78;;;3.10;;
21771;SDS011;11047;47.904;8.110;2023-12-07T11:25:37;4.78;;;2.92;;
21771;SDS011;11047;47.904;8.110;2023-12-07T11:28:05;2.67;;;2.47;;
21771;SDS011;11047;47.904;8.110;2023-12-07T11:30:41;2.95;;;2.60;;
21771;SDS011;11047;47.904;8.110;2023-12-07T11:33:09;2.67;;;2.47;;
21771;SDS011;11047;47.904;8.110;2023-12-07T11:41:51;5.18;;;2.95;;
21771;SDS011;11047;47.904;8.110;2023-12-07T11:44:25;3.13;;;2.50;;
21771;SDS011;11047;47.904;8.110;2023-12-07T11:47:00;4.53;;;2.70;;
21771;SDS011;11047;47.904;8.110;2023-12-07T11:49:27;3.65;;;2.60;;
21771;SDS011;11047;47.904;8.110;2023-12-07T11:51:56;5.15;;;2.75;;
21771;SDS011;11047;47.904;8.110;2023-12-07T11:54:25;3.78;;;2.67;;
21771;SDS011;11047;47.904;8.110;2023-12-07T11:56:53;2.95;;;2.65;;
21771;SDS011;11047;47.904;8.110;2023-12-07T11:59:22;2.83;;;2.55;;
21771;SDS011;11047;47.904;8.110;2023-12-07T12:01:50;3.78;;;2.97;;
21771;SDS011;11047;47.904;8.110;2023-12-07T12:04:18;3.67;;;2.92;;
21771;SDS011;11047;47.904;8.110;2023-12-07T12:06:45;3.17;;;2.80;;
21771;SDS011;11047;47.904;8.110;2023-12-07T12:09:15;3.63;;;2.80;;
21771;SDS011;11047;47.904;8.110;2023-12-07T12:11:47;2.88;;;2.55;;
21771;SDS011;11047;47.904;8.110;2023-12-07T12:14:14;3.42;;;2.67;;
21771;SDS011;11047;47.904;8.110;2023-12-07T12:16:42;3.10;;;2.70;;
21771;SDS011;11047;47.904;8.110;2023-12-07T12:19:09;3.38;;;2.75;;
21771;SDS011;11047;47.904;8.110;2023-12-07T12:21:37;3.85;;;3.20;;
21771;SDS011;11047;47.904;8.110;2023-12-07T12:24:12;4.03;;;2.90;;
21771;SDS011;11047;47.904;8.110;2023-12-07T12:26:40;3.70;;;2.28;;
21771;SDS011;11047;47.904;8.110;2023-12-07T12:29:10;4.10;;;3.10;;
21771;SDS011;11047;47.904;8.110;2023-12-07T12:31:38;3.53;;;2.67;;
21771;SDS011;11047;47.904;8.110;2023-12-07T12:34:06;2.95;;;2.65;;
21771;SDS011;11047;47.904;8.110;2023-12-07T12:36:33;6.68;;;3.38;;
21771;SDS011;11047;47.904;8.110;2023-12-07T12:39:02;5.72;;;4.03;;
21771;SDS011;11047;47.904;8.110;2023-12-07T12:41:30;4.47;;;3.17;;
21771;SDS011;11047;47.904;8.110;2023-12-07T12:43:57;4.05;;;3.38;;
21771;SDS011;11047;47.904;8.110;2023-12-07T12:46:26;5.32;;;3.78;;
21771;SDS011;11047;47.904;8.110;2023-12-07T12:48:54;4.45;;;3.30;;
21771;SDS011;11047;47.904;8.110;2023-12-07T12:51:23;4.95;;;3.72;;
21771;SDS011;11047;47.904;8.110;2023-12-07T12:53:52;4.35;;;3.78;;
21771;SDS011;11047;47.904;8.110;2023-12-07T12:56:19;3.88;;;3.47;;
21771;SDS011;11047;47.904;8.110;2023-12-07T12:58:47;3.47;;;3.03;;
21771;SDS011;11047;47.904;8.110;2023-12-07T13:01:15;3.63;;;3.17;;
21771;SDS011;11047;47.904;8.110;2023-12-07T13:03:44;4.68;;;3.92;;
21771;SDS011;11047;47.904;8.110;2023-12-07T13:06:12;5.57;;;3.60;;
21771;SDS011;11047;47.904;8.110;2023-12-07T13:08:39;3.78;;;3.30;;
21771;SDS011;11047;47.904;8.110;2023-12-07T13:11:06;4.20;;;3.45;;
21771;SDS011;11047;47.904;8.110;2023-12-07T13:13:34;4.22;;;3.58;;
21771;SDS011;11047;47.904;8.110;2023-12-07T13:16:01;4.25;;;3.50;;
21771;SDS011;11047;47.904;8.110;2023-12-07T13:18:28;4.05;;;3.47;;
21771;SDS011;11047;47.904;8.110;2023-12-07T13:20:57;3.95;;;3.35;;
21771;SDS011;11047;47.904;8.110;2023-12-07T13:23:24;4.75;;;3.75;;
21771;SDS011;11047;47.904;8.110;2023-12-07T13:25:51;3.70;;;3.30;;
21771;SDS011;11047;47.904;8.110;2023-12-07T13:28:19;5.38;;;4.13;;
21771;SDS011;11047;47.904;8.110;2023-12-07T13:30:47;5.55;;;4.05;;
21771;SDS011;11047;47.904;8.110;2023-12-07T13:33:16;5.32;;;3.88;;
21771;SDS011;11047;47.904;8.110;2023-12-07T13:35:43;5.93;;;4.30;;
21771;SDS011;11047;47.904;8.110;2023-12-07T13:38:14;6.22;;;4.40;;
21771;SDS011;11047;47.904;8.110;2023-12-07T13:40:45;4.05;;;3.40;;
21771;SDS011;11047;47.904;8.110;2023-12-07T13:43:14;5.72;;;3.85;;
21771;SDS011;11047;47.904;8.110;2023-12-07T13:45:41;5.90;;;3.90;;
21771;SDS011;11047;47.904;8.110;2023-12-07T13:48:08;6.15;;;4.13;;
21771;SDS011;11047;47.904;8.110;2023-12-07T13:50:35;6.72;;;4.25;;
21771;SDS011;11047;47.904;8.110;2023-12-07T13:53:02;4.80;;;3.95;;
21771;SDS011;11047;47.904;8.110;2023-12-07T13:55:30;7.85;;;4.10;;
21771;SDS011;11047;47.904;8.110;2023-12-07T13:57:57;4.53;;;3.50;;
21771;SDS011;11047;47.904;8.110;2023-12-07T14:00:25;6.55;;;4.28;;
21771;SDS011;11047;47.904;8.110;2023-12-07T14:02:52;6.50;;;4.75;;
21771;SDS011;11047;47.904;8.110;2023-12-07T14:05:19;6.03;;;4.03;;
21771;SDS011;11047;47.904;8.110;2023-12-07T14:07:46;5.72;;;4.45;;
21771;SDS011;11047;47.904;8.110;2023-12-07T14:10:13;5.32;;;3.88;;
21771;SDS011;11047;47.904;8.110;2023-12-07T14:12:41;8.02;;;5.28;;
21771;SDS011;11047;47.904;8.110;2023-12-07T14:15:09;5.72;;;3.92;;
21771;SDS011;11047;47.904;8.110;2023-12-07T14:17:36;5.80;;;4.32;;
21771;SDS011;11047;47.904;8.110;2023-12-07T14:20:04;5.03;;;4.00;;
21771;SDS011;11047;47.904;8.110;2023-12-07T14:22:32;8.65;;;4.25;;
21771;SDS011;11047;47.904;8.110;2023-12-07T14:25:00;6.53;;;3.80;;
21771;SDS011;11047;47.904;8.110;2023-12-07T14:27:27;5.18;;;3.92;;
21771;SDS011;11047;47.904;8.110;2023-12-07T14:29:56;7.47;;;4.43;;
21771;SDS011;11047;47.904;8.110;2023-12-07T14:32:23;6.43;;;4.38;;
21771;SDS011;11047;47.904;8.110;2023-12-07T14:34:50;5.40;;;4.15;;
21771;SDS011;11047;47.904;8.110;2023-12-07T14:37:20;6.50;;;4.30;;
21771;SDS011;11047;47.904;8.110;2023-12-07T14:39:48;6.32;;;4.47;;
21771;SDS011;11047;47.904;8.110;2023-12-07T14:42:15;7.03;;;4.05;;
21771;SDS011;11047;47.904;8.110;2023-12-07T14:44:42;6.30;;;4.60;;
21771;SDS011;11047;47.904;8.110;2023-12-07T14:47:10;7.70;;;4.82;;
21771;SDS011;11047;47.904;8.110;2023-12-07T14:49:37;5.63;;;4.07;;
21771;SDS011;11047;47.904;8.110;2023-12-07T14:52:05;7.53;;;4.20;;
21771;SDS011;11047;47.904;8.110;2023-12-07T14:54:32;5.18;;;3.63;;
21771;SDS011;11047;47.904;8.110;2023-12-07T14:57:06;6.13;;;3.90;;
21771;SDS011;11047;47.904;8.110;2023-12-07T14:59:35;6.15;;;4.70;;
21771;SDS011;11047;47.904;8.110;2023-12-07T15:02:04;6.15;;;5.07;;